Time;durP1;ratioP1;P1;durP2;ratioP2;P2;SDS_P1;SDS_P2;PMS_P1;PMS_P2;Temp;Humidity;BMP_temperature;BMP_pressure;BME280_temperature;BME280_humidity;BME280_pressure;Samples;Min_cycle;Max_cycle;Signal;HPM_P1;HPM_P2
2021/01/28 00:02:18;;;;;;;19.00;7.10;;;6.00;94.50;;;;;;5012633;28;20054;-55
2021/01/28 00:04:44;;;;;;;14.15;6.40;;;5.90;94.40;;;;;;5012364;28;20052;-55
2021/01/28 00:07:10;;;;;;;12.90;6.07;;;5.90;94.50;;;;;;5013191;28;20133;-55
2021/01/28 00:09:35;;;;;;;21.77;6.80;;;5.90;94.50;;;;;;5016022;28;20457;-53
2021/01/28 00:12:01;;;;;;;15.90;6.28;;;5.90;94.50;;;;;;5012052;28;20089;-55
2021/01/28 00:14:27;;;;;;;14.85;6.40;;;5.90;94.50;;;;;;5009021;28;20050;-53
2021/01/28 00:16:53;;;;;;;16.65;6.25;;;5.90;94.40;;;;;;5015763;28;20045;-54
2021/01/28 00:19:19;;;;;;;20.67;6.20;;;5.90;94.40;;;;;;5010070;28;20141;-53
2021/01/28 00:21:45;;;;;;;16.30;6.53;;;5.90;94.50;;;;;;5015317;28;20121;-52
2021/01/28 00:24:10;;;;;;;17.00;6.35;;;5.90;94.50;;;;;;5015541;28;20037;-53
2021/01/28 00:26:36;;;;;;;20.13;6.03;;;5.90;94.50;;;;;;5002712;28;20097;-55
2021/01/28 00:29:03;;;;;;;18.33;5.75;;;5.90;94.50;;;;;;5014841;28;20105;-53
2021/01/28 00:31:28;;;;;;;12.75;5.45;;;5.80;94.50;;;;;;4994836;28;20092;-52
2021/01/28 00:33:54;;;;;;;17.35;6.13;;;5.90;94.60;;;;;;5013485;28;20053;-53
2021/01/28 00:36:20;;;;;;;14.88;5.30;;;5.80;94.60;;;;;;5013290;28;20049;-53
2021/01/28 00:38:45;;;;;;;16.35;5.63;;;5.80;94.60;;;;;;5018271;28;20042;-53
2021/01/28 00:41:11;;;;;;;13.18;5.03;;;5.80;94.60;;;;;;5012338;28;20195;-53
2021/01/28 00:43:37;;;;;;;12.10;5.10;;;5.80;94.60;;;;;;5011959;28;20042;-55
2021/01/28 00:46:04;;;;;;;16.23;5.28;;;5.80;94.60;;;;;;5009171;28;20049;-56
2021/01/28 00:48:31;;;;;;;11.07;4.40;;;5.80;94.60;;;;;;5010275;28;20131;-55
2021/01/28 00:50:58;;;;;;;12.23;4.85;;;5.70;94.60;;;;;;5007279;28;20505;-54
2021/01/28 00:53:25;;;;;;;10.50;4.20;;;5.70;94.70;;;;;;5007913;28;20323;-53
2021/01/28 00:55:51;;;;;;;15.27;4.22;;;5.80;94.70;;;;;;5007029;28;20441;-55
2021/01/28 00:58:19;;;;;;;12.35;4.63;;;5.80;94.60;;;;;;5009145;28;20033;-55
2021/01/28 01:00:46;;;;;;;14.02;4.85;;;5.80;94.60;;;;;;5004502;28;20095;-53
2021/01/28 01:03:16;;;;;;;16.73;4.53;;;5.70;94.60;;;;;;5012717;28;20049;-55
2021/01/28 01:05:43;;;;;;;13.00;4.88;;;5.80;94.70;;;;;;5012711;28;20490;-54
2021/01/28 01:08:15;;;;;;;15.27;4.75;;;5.80;94.70;;;;;;5018053;28;20053;-55
2021/01/28 01:10:48;;;;;;;13.65;4.30;;;5.80;94.70;;;;;;5011561;28;20065;-55
2021/01/28 01:13:17;;;;;;;10.35;4.68;;;5.80;94.70;;;;;;5016440;28;20049;-54
2021/01/28 01:15:43;;;;;;;13.07;4.30;;;5.80;94.70;;;;;;5007632;28;20077;-53
2021/01/28 01:18:10;;;;;;;10.02;4.88;;;5.80;94.70;;;;;;5014742;28;20046;-54
2021/01/28 01:20:36;;;;;;;9.65;4.30;;;5.80;94.70;;;;;;5014727;28;20496;-53
2021/01/28 01:23:02;;;;;;;11.88;4.30;;;5.80;94.70;;;;;;5012933;28;20073;-55
2021/01/28 01:25:28;;;;;;;13.18;4.15;;;5.80;94.70;;;;;;5012765;28;20409;-53
2021/01/28 01:27:54;;;;;;;12.02;4.07;;;5.80;94.70;;;;;;5009500;28;20041;-54
2021/01/28 01:30:21;;;;;;;13.77;4.60;;;5.80;94.60;;;;;;5013394;28;20077;-55
2021/01/28 01:32:47;;;;;;;8.00;3.63;;;5.80;94.70;;;;;;5004115;28;20042;-55
2021/01/28 01:35:15;;;;;;;11.18;4.40;;;5.70;94.70;;;;;;5008372;28;20048;-51
2021/01/28 01:37:41;;;;;;;19.55;4.43;;;5.80;94.70;;;;;;5008539;28;20137;-52
2021/01/28 01:40:09;;;;;;;10.25;4.00;;;5.80;94.70;;;;;;5010070;28;20061;-56
2021/01/28 01:42:35;;;;;;;14.70;4.65;;;5.70;94.60;;;;;;5000115;28;20034;-56
2021/01/28 01:45:06;;;;;;;13.95;3.95;;;5.70;94.60;;;;;;5009058;28;20048;-54
2021/01/28 01:47:42;;;;;;;12.88;4.13;;;5.70;94.60;;;;;;5003663;28;20038;-55
2021/01/28 01:50:24;;;;;;;10.75;3.90;;;5.60;94.60;;;;;;4997436;28;20048;-54
2021/01/28 01:52:50;;;;;;;14.73;4.10;;;5.60;94.70;;;;;;5005915;28;20038;-55
2021/01/28 01:55:16;;;;;;;10.70;4.10;;;5.60;94.70;;;;;;5011359;28;20042;-54
2021/01/28 01:57:42;;;;;;;13.20;4.18;;;5.60;94.70;;;;;;5009407;28;20498;-55
2021/01/28 02:00:14;;;;;;;10.05;4.40;;;5.60;94.70;;;;;;4994024;28;20048;-55
2021/01/28 02:02:42;;;;;;;;;;;5.60;94.70;;;;;;5011024;28;20107;-55
2021/01/28 02:05:17;;;;;;;10.68;3.35;;;5.60;94.70;;;;;;5011093;28;19928;-55
2021/01/28 02:07:43;;;;;;;9.52;3.70;;;5.60;94.70;;;;;;5008131;28;20052;-54
2021/01/28 02:10:13;;;;;;;11.57;4.22;;;5.50;94.70;;;;;;5012367;28;20050;-54
2021/01/28 02:12:39;;;;;;;9.77;4.28;;;5.50;94.70;;;;;;5011927;28;20477;-55
2021/01/28 02:15:06;;;;;;;11.55;3.85;;;5.50;94.70;;;;;;5010963;28;20068;-56
2021/01/28 02:17:32;;;;;;;10.07;3.55;;;5.50;94.70;;;;;;5002577;28;20049;-55
2021/01/28 02:20:26;;;;;;;10.93;3.92;;;5.50;94.70;;;;;;5005304;28;20117;-56
2021/01/28 02:23:15;;;;;;;10.68;3.83;;;5.50;94.70;;;;;;5010180;28;20460;-55
2021/01/28 02:25:43;;;;;;;10.48;4.97;;;5.50;94.70;;;;;;4994594;28;20073;-55
2021/01/28 02:28:15;;;;;;;11.35;4.50;;;5.50;94.70;;;;;;5010174;28;20079;-54
2021/01/28 02:30:42;;;;;;;11.38;4.63;;;5.50;94.70;;;;;;5005028;28;20042;-55
2021/01/28 02:33:10;;;;;;;10.68;4.20;;;5.50;94.80;;;;;;5006487;28;20119;-53
2021/01/28 02:35:38;;;;;;;12.68;4.10;;;5.50;94.70;;;;;;5010574;28;20042;-55
2021/01/28 02:38:09;;;;;;;15.55;4.25;;;5.50;94.70;;;;;;5012834;28;20038;-55
2021/01/28 02:40:37;;;;;;;10.73;3.93;;;5.50;94.80;;;;;;4996909;28;20124;-52
2021/01/28 02:43:03;;;;;;;10.02;3.80;;;5.50;94.80;;;;;;4993293;28;20042;-54
2021/01/28 02:45:34;;;;;;;10.10;3.60;;;5.50;94.80;;;;;;5005999;28;20042;-55
2021/01/28 02:48:07;;;;;;;7.70;3.53;;;5.50;94.80;;;;;;5007148;28;20038;-55
2021/01/28 02:50:34;;;;;;;15.57;4.00;;;5.50;94.70;;;;;;5003269;28;20046;-54
2021/01/28 02:53:03;;;;;;;9.80;4.25;;;5.50;94.70;;;;;;4969489;28;20409;-56
2021/01/28 02:55:31;;;;;;;9.20;4.00;;;5.50;94.70;;;;;;4995971;28;20727;-55
2021/01/28 02:57:58;;;;;;;12.20;4.50;;;5.40;94.70;;;;;;5001454;28;20042;-54
2021/01/28 03:00:29;;;;;;;9.45;4.43;;;5.40;94.70;;;;;;4996724;28;20050;-56
2021/01/28 03:02:54;;;;;;;16.13;4.18;;;5.40;94.70;;;;;;5005459;28;20046;-56
2021/01/28 03:05:21;;;;;;;11.95;4.25;;;5.40;94.70;;;;;;5003798;28;20441;-54
2021/01/28 03:07:47;;;;;;;11.55;4.78;;;5.40;94.70;;;;;;5016071;28;20030;-54
2021/01/28 03:10:13;;;;;;;12.40;4.30;;;5.40;94.80;;;;;;5009255;28;20046;-56
2021/01/28 03:12:39;;;;;;;8.32;4.30;;;5.40;94.70;;;;;;5005116;28;20120;-56
2021/01/28 03:15:07;;;;;;;12.55;4.35;;;5.40;94.70;;;;;;5004562;28;20133;-54
2021/01/28 03:17:33;;;;;;;9.63;4.55;;;5.40;94.70;;;;;;5005111;28;20041;-56
2021/01/28 03:19:58;;;;;;;10.35;5.00;;;5.40;94.80;;;;;;5000742;28;20046;-55
2021/01/28 03:22:24;;;;;;;13.80;4.53;;;5.40;94.80;;;;;;5001379;28;20046;-52
2021/01/28 03:24:50;;;;;;;9.77;5.03;;;5.40;94.80;;;;;;5009523;28;20038;-55
2021/01/28 03:27:16;;;;;;;10.13;4.75;;;5.40;94.80;;;;;;5002296;28;20038;-56
2021/01/28 03:29:41;;;;;;;11.40;4.35;;;5.40;94.80;;;;;;5008099;28;20038;-54
2021/01/28 03:32:07;;;;;;;12.70;4.70;;;5.40;94.80;;;;;;5004092;28;20137;-55
2021/01/28 03:34:35;;;;;;;12.40;4.40;;;5.40;94.80;;;;;;5016448;28;20069;-54
2021/01/28 03:37:01;;;;;;;11.68;4.72;;;5.40;94.70;;;;;;5014862;28;20518;-55
2021/01/28 03:39:27;;;;;;;8.27;4.50;;;5.40;94.70;;;;;;5004983;28;20112;-52
2021/01/28 03:41:52;;;;;;;10.57;4.78;;;5.40;94.80;;;;;;5011903;28;20050;-55
2021/01/28 03:44:18;;;;;;;12.48;4.93;;;5.40;94.70;;;;;;5010780;28;20046;-54
2021/01/28 03:46:44;;;;;;;5.72;3.70;;;5.40;94.70;;;;;;5010447;28;20050;-55
2021/01/28 03:49:09;;;;;;;7.93;4.10;;;5.30;94.70;;;;;;5006833;28;20048;-55
2021/01/28 03:51:35;;;;;;;8.57;4.25;;;5.30;94.70;;;;;;5012048;28;20100;-55
2021/01/28 03:54:01;;;;;;;10.52;4.38;;;5.30;94.60;;;;;;4997901;28;20042;-54
2021/01/28 03:56:26;;;;;;;11.10;5.15;;;5.20;94.60;;;;;;5017297;28;20064;-56
2021/01/28 03:58:52;;;;;;;8.95;4.22;;;5.20;94.70;;;;;;5009063;28;20042;-56
2021/01/28 04:01:17;;;;;;;9.05;4.38;;;5.20;94.70;;;;;;4996845;28;20125;-56
2021/01/28 04:03:43;;;;;;;9.38;4.78;;;5.20;94.70;;;;;;5009395;28;20038;-55
2021/01/28 04:06:10;;;;;;;12.23;4.97;;;5.20;94.70;;;;;;5005655;28;20399;-55
2021/01/28 04:08:36;;;;;;;13.23;5.50;;;5.20;94.70;;;;;;5012249;28;20088;-56
2021/01/28 04:11:01;;;;;;;10.75;5.35;;;5.20;94.70;;;;;;4996752;28;20050;-53
2021/01/28 04:13:27;;;;;;;12.13;5.18;;;5.20;94.70;;;;;;5011463;28;20506;-56
2021/01/28 04:15:53;;;;;;;9.93;5.32;;;5.20;94.80;;;;;;5003935;28;20065;-55
2021/01/28 04:18:19;;;;;;;11.20;5.32;;;5.20;94.80;;;;;;5009569;28;20069;-53
2021/01/28 04:20:46;;;;;;;12.65;5.20;;;5.30;94.80;;;;;;5005818;28;20454;-55
2021/01/28 04:23:13;;;;;;;12.52;6.03;;;5.30;94.80;;;;;;5007210;28;20130;-52
2021/01/28 04:25:38;;;;;;;14.57;5.65;;;5.20;95.00;;;;;;5008632;28;20136;-53
2021/01/28 04:28:04;;;;;;;12.77;5.75;;;5.20;94.80;;;;;;5007155;28;20137;-53
2021/01/28 04:30:32;;;;;;;10.35;5.72;;;5.30;94.80;;;;;;5007396;28;20088;-56
2021/01/28 04:32:59;;;;;;;10.35;5.65;;;5.30;94.80;;;;;;5015398;28;20041;-55
2021/01/28 04:35:27;;;;;;;12.65;6.75;;;5.30;94.80;;;;;;5015048;28;20070;-55
2021/01/28 04:37:53;;;;;;;11.95;6.07;;;5.20;94.70;;;;;;5014450;28;20042;-54
2021/01/28 04:40:36;;;;;;;11.18;6.20;;;5.20;94.70;;;;;;5013009;28;20050;-56
2021/01/28 04:43:22;;;;;;;12.20;6.50;;;5.20;94.70;;;;;;5008796;28;20082;-55
2021/01/28 04:45:50;;;;;;;14.57;6.88;;;5.30;94.80;;;;;;5011573;28;20055;-55
2021/01/28 04:48:17;;;;;;;18.45;7.20;;;5.20;94.70;;;;;;5006944;28;20096;-54
2021/01/28 04:50:43;;;;;;;16.35;7.07;;;5.20;94.70;;;;;;5010089;28;20064;-55
2021/01/28 04:53:33;;;;;;;14.35;6.55;;;5.30;94.70;;;;;;5006623;28;20053;-55
2021/01/28 04:56:06;;;;;;;18.08;7.25;;;5.20;94.60;;;;;;5005742;28;20046;-55
2021/01/28 04:58:32;;;;;;;15.40;6.68;;;5.20;94.70;;;;;;5011548;28;20042;-55
2021/01/28 05:00:57;;;;;;;15.35;6.53;;;5.10;94.60;;;;;;5000646;28;20045;-56
2021/01/28 05:03:28;;;;;;;19.80;6.80;;;5.10;94.70;;;;;;5007257;28;20056;-56
2021/01/28 05:05:57;;;;;;;10.43;5.88;;;5.10;94.60;;;;;;5008547;28;20252;-56
2021/01/28 05:08:24;;;;;;;40.65;7.57;;;5.00;94.80;;;;;;5001824;28;20471;-53
2021/01/28 05:10:52;;;;;;;54.33;7.20;;;5.10;94.70;;;;;;5009127;28;20125;-56
2021/01/28 05:13:37;;;;;;;36.13;6.53;;;5.00;94.60;;;;;;5011358;28;20042;-55
2021/01/28 05:16:38;;;;;;;46.83;6.10;;;5.00;94.60;;;;;;5001475;28;20034;-55
2021/01/28 05:19:07;;;;;;;81.40;7.50;;;5.00;94.70;;;;;;5010751;28;20033;-55
2021/01/28 05:21:43;;;;;;;37.85;6.22;;;4.90;94.80;;;;;;5004003;28;20523;-56
2021/01/28 05:24:35;;;;;;;25.98;6.97;;;4.90;94.80;;;;;;5006889;28;20046;-56
2021/01/28 05:27:32;;;;;;;17.05;6.72;;;4.90;94.80;;;;;;5008833;28;20053;-56
2021/01/28 05:30:00;;;;;;;84.65;10.13;;;4.90;94.80;;;;;;4992484;28;20045;-55
2021/01/28 05:32:42;;;;;;;17.25;8.18;;;4.90;94.80;;;;;;5013379;28;20577;-56
2021/01/28 05:35:25;;;;;;;40.20;9.32;;;5.00;94.70;;;;;;5009124;28;20042;-54
2021/01/28 05:38:10;;;;;;;57.38;8.68;;;5.10;94.70;;;;;;5011490;28;20029;-55
2021/01/28 05:40:37;;;;;;;28.95;9.57;;;5.10;94.50;;;;;;5008050;28;20033;-56
2021/01/28 05:43:22;;;;;;;19.48;8.98;;;5.00;94.50;;;;;;4988080;28;20510;-55
2021/01/28 05:45:47;;;;;;;24.13;8.63;;;5.00;94.70;;;;;;5010348;28;20049;-55
2021/01/28 05:48:23;;;;;;;37.28;9.30;;;5.10;94.70;;;;;;5003776;28;20407;-55
2021/01/28 05:51:13;;;;;;;21.13;9.45;;;5.20;94.60;;;;;;5003289;28;20034;-54
2021/01/28 05:53:39;;;;;;;29.35;8.68;;;5.10;94.50;;;;;;5005558;28;20069;-54
2021/01/28 05:56:15;;;;;;;92.28;9.95;;;5.10;94.70;;;;;;5005034;28;20492;-53
2021/01/28 05:58:45;;;;;;;42.65;10.80;;;5.10;94.70;;;;;;5005653;28;20038;-55
2021/01/28 06:01:42;;;;;;;38.47;9.60;;;5.10;94.60;;;;;;5009316;28;20034;-52
2021/01/28 06:04:40;;;;;;;47.47;9.88;;;5.00;94.70;;;;;;4994467;28;20042;-53
2021/01/28 06:07:30;;;;;;;44.55;8.70;;;5.00;94.60;;;;;;4972294;28;20053;-55
2021/01/28 06:10:10;;;;;;;31.80;8.63;;;5.00;94.80;;;;;;5006208;28;20072;-54
2021/01/28 06:12:43;;;;;;;75.95;11.10;;;4.90;94.90;;;;;;5008170;28;20044;-55
2021/01/28 06:15:36;;;;;;;53.33;10.23;;;4.90;94.90;;;;;;5002953;28;20654;-54
2021/01/28 06:18:07;;;;;;;;;;;4.90;95.00;;;;;;5004922;28;20049;-52
2021/01/28 06:21:14;;;;;;;42.03;9.27;;;5.00;94.90;;;;;;5008515;28;20424;-55
2021/01/28 06:24:24;;;;;;;44.53;9.55;;;5.10;94.70;;;;;;5010317;28;20501;-52
2021/01/28 06:27:31;;;;;;;41.10;9.75;;;5.10;94.40;;;;;;4979352;28;20045;-54
2021/01/28 06:29:59;;;;;;;35.00;9.73;;;5.10;94.50;;;;;;5014619;28;20433;-55
2021/01/28 06:32:49;;;;;;;32.15;9.80;;;5.10;94.50;;;;;;5012412;28;20049;-54
2021/01/28 06:35:33;;;;;;;26.73;10.15;;;5.00;94.70;;;;;;5012521;28;20054;-54
2021/01/28 06:38:16;;;;;;;30.90;10.45;;;5.00;94.80;;;;;;5014302;28;20038;-54
2021/01/28 06:40:50;;;;;;;32.60;11.45;;;5.00;94.60;;;;;;5024549;28;20091;-53
2021/01/28 06:43:37;;;;;;;26.92;11.10;;;4.90;94.80;;;;;;5014703;28;20136;-52
2021/01/28 06:46:19;;;;;;;23.33;9.40;;;5.00;94.70;;;;;;5020933;28;20489;-55
2021/01/28 06:48:46;;;;;;;21.85;11.15;;;5.00;94.80;;;;;;5013674;28;20054;-53
2021/01/28 06:51:35;;;;;;;27.05;11.95;;;5.10;94.80;;;;;;5015193;28;20416;-54
2021/01/28 06:54:10;;;;;;;22.55;10.38;;;5.00;94.70;;;;;;5014720;28;20116;-54
2021/01/28 06:56:48;;;;;;;27.23;11.02;;;5.00;94.70;;;;;;5010442;28;20137;-54
2021/01/28 06:59:45;;;;;;;21.90;9.80;;;5.00;94.70;;;;;;5010312;28;20033;-54
2021/01/28 07:02:37;;;;;;;19.02;9.25;;;5.00;94.70;;;;;;5005371;28;20041;-54
2021/01/28 07:05:13;;;;;;;22.05;10.80;;;5.10;94.70;;;;;;5004406;28;20510;-50
2021/01/28 07:07:47;;;;;;;22.08;10.45;;;5.00;94.50;;;;;;5005012;28;20136;-54
2021/01/28 07:10:24;;;;;;;17.23;9.88;;;5.10;94.60;;;;;;5008052;28;20050;-55
2021/01/28 07:12:52;;;;;;;18.45;9.55;;;5.00;94.70;;;;;;5008111;28;20057;-54
2021/01/28 07:15:20;;;;;;;18.38;9.57;;;5.10;94.70;;;;;;5002546;28;20050;-53
2021/01/28 07:18:19;;;;;;;17.23;9.40;;;5.10;94.60;;;;;;5009378;28;20491;-55
2021/01/28 07:20:58;;;;;;;21.35;9.20;;;5.10;94.30;;;;;;4997168;28;20041;-55
2021/01/28 07:23:28;;;;;;;21.17;9.23;;;5.10;94.50;;;;;;5006976;28;20100;-52
2021/01/28 07:26:09;;;;;;;19.92;9.63;;;5.10;94.20;;;;;;5000970;28;20061;-55
2021/01/28 07:28:35;;;;;;;16.20;9.25;;;5.10;94.30;;;;;;5004079;28;20045;-54
2021/01/28 07:31:06;;;;;;;18.98;10.10;;;5.10;94.30;;;;;;5013871;28;20096;-52
2021/01/28 07:33:31;;;;;;;19.25;8.20;;;5.00;94.60;;;;;;5014005;28;20072;-51
2021/01/28 07:36:00;;;;;;;19.88;9.68;;;5.10;94.40;;;;;;5014275;28;20065;-55
2021/01/28 07:38:29;;;;;;;18.92;10.07;;;5.10;94.30;;;;;;5020073;28;20037;-55
2021/01/28 07:41:09;;;;;;;19.15;9.77;;;5.20;94.20;;;;;;5012423;28;20064;-55
2021/01/28 07:43:47;;;;;;;21.10;9.65;;;5.10;94.20;;;;;;5011668;28;20567;-55
2021/01/28 07:46:36;;;;;;;22.65;9.60;;;5.10;94.10;;;;;;5008752;28;20119;-55
2021/01/28 07:49:24;;;;;;;17.08;9.20;;;5.10;94.20;;;;;;5000524;28;20042;-54
2021/01/28 07:52:00;;;;;;;19.77;9.32;;;5.00;94.30;;;;;;5007170;28;20077;-55
2021/01/28 07:54:25;;;;;;;17.88;9.55;;;5.10;94.30;;;;;;5009808;28;20482;-54
2021/01/28 07:57:04;;;;;;;21.33;11.18;;;5.10;94.30;;;;;;5012069;28;20120;-55
2021/01/28 07:59:54;;;;;;;20.52;10.30;;;5.10;94.30;;;;;;5005522;28;20037;-55
2021/01/28 08:02:24;;;;;;;19.60;10.52;;;5.10;94.20;;;;;;5006618;28;20188;-52
2021/01/28 08:05:05;;;;;;;20.92;11.55;;;5.10;94.10;;;;;;5000649;28;20060;-54
2021/01/28 08:07:43;;;;;;;22.48;11.10;;;5.10;94.30;;;;;;5000198;28;20493;-54
2021/01/28 08:10:38;;;;;;;26.90;12.23;;;5.10;94.10;;;;;;5009818;28;20053;-54
2021/01/28 08:13:19;;;;;;;25.95;12.57;;;5.10;94.40;;;;;;5005524;28;20442;-53
2021/01/28 08:15:48;;;;;;;27.70;12.90;;;5.20;94.00;;;;;;5011537;28;20113;-55
2021/01/28 08:18:21;;;;;;;28.88;12.90;;;5.20;93.90;;;;;;5012520;28;20128;-55
2021/01/28 08:20:47;;;;;;;26.73;12.05;;;5.10;94.20;;;;;;5003111;28;20043;-55
2021/01/28 08:23:25;;;;;;;28.50;13.20;;;5.10;94.20;;;;;;5010685;28;20119;-54
2021/01/28 08:25:57;;;;;;;26.98;12.13;;;5.20;93.90;;;;;;5013292;28;20038;-55
2021/01/28 08:28:24;;;;;;;27.48;13.57;;;5.20;94.30;;;;;;5009068;28;20038;-56
2021/01/28 08:31:02;;;;;;;30.13;13.68;;;5.20;93.90;;;;;;5005889;28;20038;-51
2021/01/28 08:33:28;;;;;;;29.02;13.32;;;5.20;94.10;;;;;;5007526;28;20517;-52
2021/01/28 08:36:02;;;;;;;29.75;13.98;;;5.10;94.20;;;;;;5004230;28;20149;-54
2021/01/28 08:38:31;;;;;;;27.70;12.50;;;5.10;94.40;;;;;;5007008;28;20100;-55
2021/01/28 08:41:12;;;;;;;27.38;13.25;;;5.30;93.90;;;;;;5010167;28;20119;-55
2021/01/28 08:43:38;;;;;;;26.40;12.32;;;5.20;94.00;;;;;;5006462;28;20046;-55
2021/01/28 08:46:06;;;;;;;25.60;12.32;;;5.30;93.90;;;;;;5007024;28;20033;-55
2021/01/28 08:48:33;;;;;;;26.83;13.07;;;5.30;93.80;;;;;;5001452;28;20034;-52
2021/01/28 08:51:22;;;;;;;25.80;12.20;;;5.30;93.80;;;;;;5003968;28;20057;-55
2021/01/28 08:54:06;;;;;;;27.90;11.70;;;5.20;93.90;;;;;;5008614;28;20050;-54
2021/01/28 08:56:39;;;;;;;29.92;12.52;;;5.20;94.00;;;;;;5007790;28;20038;-55
2021/01/28 08:59:15;;;;;;;28.33;13.85;;;5.20;93.70;;;;;;5004141;28;20050;-54
2021/01/28 09:01:44;;;;;;;31.38;12.82;;;5.20;93.80;;;;;;5003914;28;20486;-52
2021/01/28 09:04:24;;;;;;;25.33;12.57;;;5.30;93.60;;;;;;5006584;28;20045;-54
2021/01/28 09:06:50;;;;;;;24.30;12.20;;;5.30;93.60;;;;;;5007449;28;20038;-55
2021/01/28 09:09:29;;;;;;;26.02;12.32;;;5.20;93.80;;;;;;5003292;28;20434;-51
2021/01/28 09:12:15;;;;;;;21.00;11.07;;;5.20;93.80;;;;;;5000447;28;20045;-54
2021/01/28 09:14:42;;;;;;;24.00;11.05;;;5.10;93.90;;;;;;5007533;28;20046;-55
2021/01/28 09:17:29;;;;;;;21.00;10.55;;;5.20;93.80;;;;;;5003065;28;20046;-54
2021/01/28 09:19:59;;;;;;;18.65;9.32;;;5.10;93.70;;;;;;5005446;28;20097;-53
2021/01/28 09:22:45;;;;;;;18.65;9.45;;;5.20;93.50;;;;;;5004443;28;20054;-53
2021/01/28 09:25:21;;;;;;;19.25;8.68;;;5.20;93.40;;;;;;5007183;28;20415;-54
2021/01/28 09:28:12;;;;;;;16.02;8.43;;;5.20;93.20;;;;;;5002098;28;20035;-56
2021/01/28 09:30:44;;;;;;;17.48;7.93;;;5.20;93.00;;;;;;4998286;28;20038;-54
2021/01/28 09:33:39;;;;;;;19.95;7.88;;;5.30;92.20;;;;;;5005325;28;20049;-52
2021/01/28 09:36:11;;;;;;;14.02;7.03;;;5.20;92.80;;;;;;5006667;28;20053;-55
2021/01/28 09:38:41;;;;;;;14.13;6.18;;;5.30;92.20;;;;;;4985588;28;20414;-54
2021/01/28 09:41:18;;;;;;;17.55;7.53;;;5.20;92.20;;;;;;5008901;28;20114;-53
2021/01/28 09:43:45;;;;;;;13.60;6.88;;;5.10;92.40;;;;;;5010066;28;20050;-53
2021/01/28 09:46:19;;;;;;;13.07;6.20;;;5.10;92.30;;;;;;5008877;28;20084;-55
2021/01/28 09:48:51;;;;;;;11.63;5.40;;;5.10;92.30;;;;;;5005326;28;20104;-54
2021/01/28 09:51:28;;;;;;;11.82;6.00;;;5.20;92.00;;;;;;5003282;28;20125;-55
2021/01/28 09:54:01;;;;;;;11.07;5.65;;;5.20;91.60;;;;;;5006727;28;20034;-54
2021/01/28 09:56:27;;;;;;;11.43;5.72;;;5.10;92.00;;;;;;5006752;28;20080;-55
2021/01/28 09:58:52;;;;;;;11.90;5.53;;;5.00;92.10;;;;;;5009555;28;20046;-55
2021/01/28 10:01:18;;;;;;;12.52;5.93;;;5.00;92.10;;;;;;5003809;28;20045;-55
2021/01/28 10:03:44;;;;;;;10.35;5.20;;;5.00;92.30;;;;;;5009881;28;20133;-54
2021/01/28 10:06:10;;;;;;;10.55;5.38;;;5.00;92.40;;;;;;5007939;28;20045;-54
2021/01/28 10:08:35;;;;;;;11.63;5.22;;;5.00;92.50;;;;;;5017475;28;20096;-53
2021/01/28 10:11:02;;;;;;;10.70;4.38;;;5.00;92.20;;;;;;5008099;28;20490;-51
2021/01/28 10:13:28;;;;;;;10.23;5.15;;;5.10;91.80;;;;;;5008463;28;20049;-54
2021/01/28 10:15:54;;;;;;;10.45;5.05;;;5.10;91.90;;;;;;5005400;28;20116;-53
2021/01/28 10:18:19;;;;;;;10.40;5.07;;;5.10;91.80;;;;;;5006888;28;20592;-55
2021/01/28 10:20:45;;;;;;;12.05;5.13;;;5.10;91.50;;;;;;5006885;28;20125;-55
2021/01/28 10:23:11;;;;;;;11.73;4.97;;;5.00;92.00;;;;;;5007142;28;20499;-51
2021/01/28 10:25:36;;;;;;;9.73;4.47;;;4.80;92.20;;;;;;5008789;28;20107;-54
2021/01/28 10:28:04;;;;;;;8.38;3.83;;;4.90;91.80;;;;;;5010509;28;20046;-55
2021/01/28 10:30:30;;;;;;;8.07;4.25;;;5.00;91.40;;;;;;5006868;28;20505;-54
2021/01/28 10:32:57;;;;;;;9.65;3.33;;;5.00;91.40;;;;;;5008001;28;20038;-55
2021/01/28 10:35:26;;;;;;;7.00;2.95;;;4.80;91.60;;;;;;5009520;28;20136;-54
2021/01/28 10:37:52;;;;;;;7.00;2.60;;;4.70;92.00;;;;;;5000401;28;20049;-55
2021/01/28 10:40:19;;;;;;;5.40;2.80;;;4.70;91.90;;;;;;5009979;28;20209;-55
2021/01/28 10:42:46;;;;;;;7.80;3.20;;;4.70;91.70;;;;;;5003854;28;20045;-54
2021/01/28 10:45:22;;;;;;;6.95;3.42;;;4.80;91.60;;;;;;5003464;28;20046;-55
2021/01/28 10:47:47;;;;;;;9.38;3.88;;;4.80;91.90;;;;;;5004590;28;20129;-54
2021/01/28 10:50:14;;;;;;;8.80;3.55;;;4.80;91.70;;;;;;5000978;28;20140;-54
2021/01/28 10:52:40;;;;;;;7.07;4.32;;;4.70;92.20;;;;;;5008440;28;20405;-55
2021/01/28 10:55:08;;;;;;;9.40;4.90;;;4.70;92.40;;;;;;5009335;28;20128;-53
2021/01/28 10:57:34;;;;;;;9.77;5.65;;;4.60;92.60;;;;;;5006376;28;20470;-55
2021/01/28 11:00:00;;;;;;;10.73;5.85;;;4.60;92.60;;;;;;5008690;28;20041;-54
2021/01/28 11:02:25;;;;;;;11.95;6.65;;;4.70;92.50;;;;;;5007805;28;20052;-56
2021/01/28 11:04:51;;;;;;;13.85;7.35;;;5.00;92.70;;;;;;5001006;28;20073;-56
2021/01/28 11:07:17;;;;;;;15.77;8.45;;;4.60;92.70;;;;;;5000460;28;20107;-56
2021/01/28 11:09:43;;;;;;;14.30;7.65;;;4.70;92.70;;;;;;5000901;28;20510;-56
2021/01/28 11:12:09;;;;;;;12.77;8.30;;;4.70;92.30;;;;;;5009696;28;20109;-56
2021/01/28 11:14:34;;;;;;;14.10;8.48;;;4.80;92.10;;;;;;5007719;28;20054;-56
2021/01/28 11:17:01;;;;;;;14.88;8.48;;;4.80;92.30;;;;;;5001669;28;20053;-54
2021/01/28 11:19:26;;;;;;;14.38;8.68;;;4.70;92.50;;;;;;5011145;28;20064;-54
2021/01/28 11:21:52;;;;;;;16.00;8.95;;;4.70;92.60;;;;;;5007286;28;20050;-53
2021/01/28 11:24:17;;;;;;;14.57;8.77;;;4.70;92.50;;;;;;5007771;28;20066;-53
2021/01/28 11:26:43;;;;;;;16.17;8.70;;;4.70;92.80;;;;;;5003364;28;20089;-55
2021/01/28 11:29:09;;;;;;;15.00;9.30;;;4.60;92.80;;;;;;5009025;28;20077;-54
2021/01/28 11:31:36;;;;;;;14.13;8.98;;;4.60;92.90;;;;;;5011630;28;20061;-54
2021/01/28 11:34:03;;;;;;;13.10;8.25;;;4.60;92.70;;;;;;5006884;28;20050;-54
2021/01/28 11:36:29;;;;;;;13.02;8.80;;;4.70;92.20;;;;;;5020756;28;20460;-53
2021/01/28 11:38:55;;;;;;;15.82;7.85;;;4.60;92.50;;;;;;4999926;28;20046;-54
2021/01/28 11:41:20;;;;;;;13.02;7.80;;;4.60;92.20;;;;;;5004381;28;20064;-55
2021/01/28 11:43:46;;;;;;;13.25;7.28;;;4.70;92.20;;;;;;5005593;28;20474;-54
2021/01/28 11:46:12;;;;;;;13.57;8.43;;;4.90;91.40;;;;;;5012370;28;20113;-55
2021/01/28 11:48:37;;;;;;;15.73;8.55;;;4.70;91.80;;;;;;5009776;28;20041;-54
2021/01/28 11:51:03;;;;;;;17.33;9.50;;;4.70;92.10;;;;;;5001097;28;20038;-55
2021/01/28 11:53:29;;;;;;;14.02;7.13;;;4.60;92.50;;;;;;5007575;28;20129;-55
2021/01/28 11:55:55;;;;;;;13.82;8.20;;;4.60;92.60;;;;;;5015504;28;20037;-54
2021/01/28 11:58:21;;;;;;;16.27;8.55;;;4.60;92.40;;;;;;5007257;28;20087;-55
2021/01/28 12:00:47;;;;;;;14.15;8.90;;;4.60;92.30;;;;;;5025434;28;20109;-54
2021/01/28 12:03:12;;;;;;;12.70;6.97;;;4.60;92.30;;;;;;5022007;28;20076;-54
2021/01/28 12:05:38;;;;;;;10.85;7.22;;;4.60;91.60;;;;;;5026903;28;20099;-53
2021/01/28 12:08:04;;;;;;;13.10;8.07;;;4.60;91.70;;;;;;5024065;28;20042;-55
2021/01/28 12:10:31;;;;;;;14.18;7.07;;;4.50;92.40;;;;;;5022391;28;20049;-53
2021/01/28 12:12:57;;;;;;;15.70;6.45;;;4.40;92.70;;;;;;5011126;28;20045;-53
2021/01/28 12:15:23;;;;;;;11.77;6.85;;;4.50;92.40;;;;;;5013795;28;20057;-55
2021/01/28 12:17:50;;;;;;;11.88;7.20;;;4.50;92.40;;;;;;5013700;28;20046;-55
2021/01/28 12:20:19;;;;;;;11.13;5.97;;;4.60;91.50;;;;;;5014011;28;20042;-54
2021/01/28 12:22:45;;;;;;;12.60;6.82;;;4.50;92.00;;;;;;5003398;28;20151;-52
2021/01/28 12:25:11;;;;;;;10.88;6.55;;;4.50;91.80;;;;;;5003585;28;20134;-54
2021/01/28 12:27:37;;;;;;;13.80;6.85;;;4.50;91.90;;;;;;5009317;28;20041;-56
2021/01/28 12:30:06;;;;;;;11.38;6.63;;;4.40;91.80;;;;;;5006624;28;20030;-55
2021/01/28 12:32:31;;;;;;;10.88;5.85;;;4.30;92.50;;;;;;5005647;28;20047;-54
2021/01/28 12:34:57;;;;;;;11.27;6.25;;;4.30;92.60;;;;;;5001898;28;20426;-54
2021/01/28 12:37:23;;;;;;;10.35;5.10;;;4.30;92.40;;;;;;5012506;28;20041;-55
2021/01/28 12:39:49;;;;;;;12.15;6.30;;;4.30;92.30;;;;;;5009001;28;20034;-55
2021/01/28 12:42:14;;;;;;;12.55;6.72;;;4.20;92.60;;;;;;5013288;28;20407;-53
2021/01/28 12:44:41;;;;;;;12.05;5.90;;;4.20;93.00;;;;;;5010677;28;20033;-55
2021/01/28 12:47:06;;;;;;;8.52;4.65;;;4.30;92.30;;;;;;5003146;28;20081;-54
2021/01/28 12:49:32;;;;;;;9.32;4.78;;;4.30;92.40;;;;;;5006642;28;20046;-55
2021/01/28 12:51:58;;;;;;;12.65;6.20;;;4.30;92.30;;;;;;5009804;28;20044;-55
2021/01/28 12:54:24;;;;;;;9.63;4.93;;;4.20;92.60;;;;;;5004623;28;20560;-55
2021/01/28 12:56:50;;;;;;;14.45;6.68;;;4.30;92.40;;;;;;5004047;28;20046;-55
2021/01/28 12:59:16;;;;;;;9.35;4.93;;;4.20;92.40;;;;;;4990898;28;20857;-53
2021/01/28 13:01:42;;;;;;;9.85;3.97;;;4.30;92.40;;;;;;5009094;28;20641;-55
2021/01/28 13:04:07;;;;;;;8.90;4.90;;;4.30;92.20;;;;;;5009170;28;20050;-55
2021/01/28 13:06:33;;;;;;;8.88;4.53;;;4.20;92.20;;;;;;4994822;28;20054;-54
2021/01/28 13:08:59;;;;;;;8.20;4.78;;;4.20;92.40;;;;;;5010003;28;20042;-55